createdAt,value
2019-03-30T00:01:29.126Z,54.30
2019-03-30T00:04:00.913Z,52.83
2019-03-30T00:06:32.128Z,48.73
2019-03-30T00:09:03.801Z,47.55
2019-03-30T00:11:34.719Z,49.30
2019-03-30T00:14:05.966Z,47.05
2019-03-30T00:16:37.204Z,50.45
2019-03-30T00:19:08.352Z,42.70
2019-03-30T00:21:39.930Z,47.85
2019-03-30T00:24:10.328Z,40.52
2019-03-30T00:26:43.010Z,43.28
2019-03-30T00:29:13.669Z,44.15
2019-03-30T00:31:44.365Z,44.63
2019-03-30T00:34:17.862Z,41.75
2019-03-30T00:36:49.220Z,41.08
2019-03-30T00:39:21.261Z,46.98
2019-03-30T00:41:52.411Z,42.20
2019-03-30T00:44:23.560Z,51.88
2019-03-30T00:46:53.778Z,45.45
2019-03-30T00:49:28.183Z,47.00
2019-03-30T00:51:59.161Z,41.58
2019-03-30T00:54:31.194Z,44.83
2019-03-30T00:57:01.457Z,44.05
2019-03-30T00:59:32.250Z,42.20
2019-03-30T01:02:02.983Z,47.73
2019-03-30T01:04:35.257Z,47.90
2019-03-30T01:07:07.113Z,42.25
2019-03-30T01:09:37.435Z,46.50
2019-03-30T01:12:12.461Z,47.78
2019-03-30T01:14:42.795Z,47.95
2019-03-30T01:17:13.522Z,43.35
2019-03-30T01:19:44.254Z,45.33
2019-03-30T01:22:17.444Z,42.62
2019-03-30T01:24:48.279Z,39.67
2019-03-30T01:27:21.398Z,41.88
2019-03-30T01:29:52.924Z,38.98
2019-03-30T01:32:23.859Z,39.80
2019-03-30T01:34:55.304Z,37.40
2019-03-30T01:37:27.263Z,42.27
2019-03-30T01:39:58.715Z,42.48
2019-03-30T01:42:29.954Z,39.18
2019-03-30T01:45:02.025Z,42.67
2019-03-30T01:47:32.589Z,38.80
2019-03-30T01:50:16.680Z,35.17
2019-03-30T01:52:36.779Z,37.95
2019-03-30T01:55:08.322Z,34.85
2019-03-30T01:57:40.127Z,43.05
2019-03-30T02:00:12.041Z,32.00
2019-03-30T02:02:42.376Z,33.85
2019-03-30T02:05:15.165Z,37.90
2019-03-30T02:07:45.579Z,46.75
2019-03-30T02:10:19.582Z,39.20
2019-03-30T02:12:52.160Z,37.58
2019-03-30T02:15:25.967Z,37.70
2019-03-30T02:17:57.009Z,31.33
2019-03-30T02:20:44.947Z,35.28
2019-03-30T02:23:15.684Z,33.65
2019-03-30T02:25:46.627Z,31.37
2019-03-30T02:28:18.157Z,39.90
2019-03-30T02:30:49.908Z,33.98
2019-03-30T02:33:20.960Z,36.65
2019-03-30T02:35:51.697Z,36.75
2019-03-30T02:38:23.565Z,34.60
2019-03-30T02:40:54.591Z,37.28
2019-03-30T02:43:25.123Z,38.48
2019-03-30T02:45:56.081Z,37.58
2019-03-30T02:48:28.777Z,37.33
2019-03-30T02:50:59.259Z,37.73
2019-03-30T02:53:30.059Z,34.48
2019-03-30T02:56:02.955Z,39.78
2019-03-30T02:58:35.471Z,37.42
2019-03-30T03:01:07.000Z,37.85
2019-03-30T03:03:39.202Z,41.33
2019-03-30T03:06:09.491Z,42.23
2019-03-30T03:08:40.843Z,39.67
2019-03-30T03:11:11.573Z,46.60
2019-03-30T03:13:43.018Z,48.10
2019-03-30T03:16:15.181Z,49.35
2019-03-30T03:18:46.136Z,52.70
2019-03-30T03:21:17.083Z,59.25
2019-03-30T03:23:48.306Z,54.53
2019-03-30T03:26:20.439Z,54.53
2019-03-30T03:28:52.643Z,53.38
2019-03-30T03:31:25.723Z,48.60
2019-03-30T03:33:57.901Z,48.08
2019-03-30T03:36:28.225Z,52.25
2019-03-30T03:38:58.839Z,46.40
2019-03-30T03:41:29.594Z,48.50
2019-03-30T03:44:00.410Z,53.35
2019-03-30T03:46:32.598Z,49.70
2019-03-30T03:49:03.217Z,52.03
2019-03-30T03:51:34.759Z,48.52
2019-03-30T03:54:05.702Z,47.90
2019-03-30T03:56:36.017Z,47.20
2019-03-30T03:59:06.758Z,51.18
2019-03-30T04:01:38.128Z,50.98
2019-03-30T04:04:09.142Z,56.10
2019-03-30T04:06:41.301Z,52.67
2019-03-30T04:09:13.234Z,55.80
2019-03-30T04:11:43.897Z,58.65
2019-03-30T04:14:18.015Z,51.08
2019-03-30T04:16:48.431Z,59.42
2019-03-30T04:19:20.566Z,53.68
2019-03-30T04:21:53.007Z,51.65
2019-03-30T04:24:23.396Z,52.23
2019-03-30T04:26:55.155Z,57.55
2019-03-30T04:29:25.882Z,55.65
2019-03-30T04:31:57.344Z,58.73
2019-03-30T04:34:28.379Z,59.40
2019-03-30T04:37:01.037Z,73.62
2019-03-30T04:39:31.883Z,79.87
2019-03-30T04:42:02.615Z,79.15
2019-03-30T04:44:34.784Z,77.27
2019-03-30T04:47:05.412Z,88.62
2019-03-30T04:49:36.967Z,86.22
2019-03-30T04:52:07.244Z,91.55
2019-03-30T04:54:40.166Z,95.15
2019-03-30T04:57:12.026Z,96.75
2019-03-30T04:59:43.681Z,93.27
2019-03-30T05:02:15.746Z,95.70
2019-03-30T05:04:46.168Z,84.17
2019-03-30T05:07:18.337Z,91.42
2019-03-30T05:09:49.497Z,89.15
2019-03-30T05:12:21.426Z,95.85
2019-03-30T05:14:52.069Z,83.75
2019-03-30T05:17:23.891Z,89.22
2019-03-30T05:19:54.661Z,88.70
2019-03-30T05:22:27.532Z,94.00
2019-03-30T05:24:57.837Z,87.97
2019-03-30T05:27:28.459Z,83.30
2019-03-30T05:30:00.858Z,71.97
2019-03-30T05:32:31.562Z,83.05
2019-03-30T05:35:02.435Z,81.02
2019-03-30T05:37:34.295Z,70.72
2019-03-30T05:40:07.202Z,71.20
2019-03-30T05:42:37.605Z,61.00
2019-03-30T05:45:08.845Z,70.92
2019-03-30T05:47:40.802Z,68.75
2019-03-30T05:50:11.616Z,79.50
2019-03-30T05:52:46.880Z,61.33
2019-03-30T05:55:17.803Z,66.53
2019-03-30T05:57:51.113Z,55.92
2019-03-30T06:00:23.891Z,52.73
2019-03-30T06:02:54.721Z,55.98
2019-03-30T06:05:27.412Z,62.95
2019-03-30T06:08:00.692Z,51.75
2019-03-30T06:10:31.000Z,50.85
2019-03-30T06:13:01.862Z,58.40
2019-03-30T06:15:33.616Z,49.18
2019-03-30T06:18:04.955Z,50.52
2019-03-30T06:20:36.915Z,52.03
2019-03-30T06:23:08.908Z,57.25
2019-03-30T06:25:39.921Z,51.20
2019-03-30T06:28:10.971Z,48.68
2019-03-30T06:30:44.478Z,44.90
2019-03-30T06:33:16.342Z,45.78
2019-03-30T06:35:47.452Z,50.95
2019-03-30T06:38:20.810Z,48.52
2019-03-30T06:40:51.988Z,51.15
2019-03-30T06:43:22.625Z,50.67
2019-03-30T06:45:53.353Z,45.58
2019-03-30T06:48:25.010Z,51.45
2019-03-30T06:50:56.518Z,47.50
2019-03-30T06:53:26.881Z,44.23
2019-03-30T06:55:58.125Z,46.18
2019-03-30T06:58:31.924Z,48.55
2019-03-30T07:01:02.126Z,60.63
2019-03-30T07:03:33.087Z,52.58
2019-03-30T07:06:03.622Z,42.95
2019-03-30T07:08:35.171Z,52.17
2019-03-30T07:11:20.254Z,49.95
2019-03-30T07:13:38.687Z,49.65
2019-03-30T07:16:09.417Z,44.50
2019-03-30T07:18:40.816Z,46.83
2019-03-30T07:21:11.596Z,44.65
2019-03-30T07:23:42.794Z,54.08
2019-03-30T07:26:13.475Z,52.25
2019-03-30T07:28:47.109Z,35.90
2019-03-30T07:31:17.091Z,54.88
2019-03-30T07:33:48.537Z,45.17
2019-03-30T07:36:19.198Z,50.67
2019-03-30T07:38:49.899Z,51.08
2019-03-30T07:41:20.431Z,50.05
2019-03-30T07:43:53.458Z,34.23
2019-03-30T07:46:24.247Z,34.60
2019-03-30T07:48:54.897Z,32.55
2019-03-30T07:51:25.712Z,41.25
2019-03-30T07:53:57.574Z,32.35
2019-03-30T07:56:28.307Z,45.12
2019-03-30T07:58:58.977Z,36.42
2019-03-30T08:01:31.201Z,41.83
2019-03-30T08:04:05.415Z,42.27
2019-03-30T08:06:37.321Z,35.55
2019-03-30T08:09:07.802Z,41.15
2019-03-30T08:11:39.350Z,32.42
2019-03-30T08:14:10.235Z,28.00
2019-03-30T08:16:42.253Z,32.33
2019-03-30T08:19:12.884Z,36.60
2019-03-30T08:21:44.944Z,38.95
2019-03-30T08:24:15.690Z,25.85
2019-03-30T08:26:46.411Z,24.45
2019-03-30T08:29:20.623Z,25.30
2019-03-30T08:31:51.867Z,23.47
2019-03-30T08:34:23.518Z,30.65
2019-03-30T08:36:54.665Z,32.70
2019-03-30T08:39:26.317Z,27.52
2019-03-30T08:41:57.050Z,29.15
2019-03-30T08:44:28.499Z,30.52
2019-03-30T08:47:00.972Z,31.75
2019-03-30T08:49:31.296Z,32.58
2019-03-30T08:52:02.640Z,37.03
2019-03-30T08:54:32.976Z,34.35
2019-03-30T08:57:03.812Z,44.60
2019-03-30T08:59:35.147Z,34.20
2019-03-30T09:02:06.187Z,31.37
2019-03-30T09:04:37.632Z,32.65
2019-03-30T09:07:08.981Z,26.90
2019-03-30T09:09:40.253Z,27.25
2019-03-30T09:12:12.092Z,32.48
2019-03-30T09:14:42.615Z,31.87
2019-03-30T09:17:14.883Z,31.00
2019-03-30T09:19:45.313Z,30.32
2019-03-30T09:22:16.469Z,30.50
2019-03-30T09:24:48.508Z,31.20
2019-03-30T09:27:21.291Z,39.40
2019-03-30T09:29:51.919Z,26.93
2019-03-30T09:32:24.090Z,30.50
2019-03-30T09:34:54.863Z,27.40
2019-03-30T09:37:27.237Z,27.02
2019-03-30T09:39:57.718Z,30.00
2019-03-30T09:42:28.460Z,32.65
2019-03-30T09:44:58.884Z,41.02
2019-03-30T09:47:32.166Z,27.27
2019-03-30T09:50:03.539Z,26.00
2019-03-30T09:52:34.006Z,24.45
2019-03-30T09:55:06.300Z,32.50
2019-03-30T09:57:36.536Z,33.20
2019-03-30T10:00:07.279Z,36.58
2019-03-30T10:02:38.099Z,29.82
2019-03-30T10:05:08.831Z,25.48
2019-03-30T10:07:39.462Z,30.40
2019-03-30T10:10:11.221Z,24.63
2019-03-30T10:12:41.717Z,42.88
2019-03-30T10:15:14.122Z,26.82
2019-03-30T10:17:44.539Z,27.95
2019-03-30T10:20:15.275Z,33.65
2019-03-30T10:22:46.010Z,26.73
2019-03-30T10:25:16.769Z,31.07
2019-03-30T10:27:47.372Z,27.40
2019-03-30T10:30:20.659Z,28.15
2019-03-30T10:32:51.808Z,32.45
2019-03-30T10:35:22.537Z,20.57
2019-03-30T10:37:53.270Z,31.75
2019-03-30T10:40:24.307Z,25.08
2019-03-30T10:42:55.157Z,26.30
2019-03-30T10:45:27.412Z,22.90
2019-03-30T10:47:59.376Z,23.73
2019-03-30T10:50:29.807Z,24.80
2019-03-30T10:53:00.636Z,26.07
2019-03-30T10:55:32.392Z,27.77
2019-03-30T10:58:03.129Z,24.20
2019-03-30T11:00:36.274Z,26.10
2019-03-30T11:03:08.485Z,22.73
2019-03-30T11:05:39.623Z,23.32
2019-03-30T11:08:11.280Z,26.30
2019-03-30T11:10:41.904Z,28.90
2019-03-30T11:13:15.708Z,26.48
2019-03-30T11:15:46.152Z,26.42
2019-03-30T11:18:18.695Z,28.07
2019-03-30T11:20:50.269Z,20.90
2019-03-30T11:23:20.603Z,29.15
2019-03-30T11:25:52.035Z,25.35
2019-03-30T11:28:23.666Z,25.43
2019-03-30T11:30:54.419Z,27.05
2019-03-30T11:33:24.756Z,29.00
2019-03-30T11:35:57.130Z,30.62
2019-03-30T11:38:28.256Z,29.98
2019-03-30T11:41:00.525Z,32.27
2019-03-30T11:43:31.270Z,23.60
2019-03-30T11:46:04.540Z,22.90
2019-03-30T11:48:37.649Z,23.22
2019-03-30T11:51:08.784Z,28.75
2019-03-30T11:53:39.819Z,24.65
2019-03-30T11:56:10.452Z,29.10
2019-03-30T11:58:41.692Z,33.53
2019-03-30T12:01:13.858Z,30.55
2019-03-30T12:03:44.958Z,24.00
2019-03-30T12:06:15.940Z,34.03
2019-03-30T12:08:48.299Z,27.55
2019-03-30T12:11:19.466Z,28.98
2019-03-30T12:13:50.187Z,24.32
2019-03-30T12:16:21.022Z,32.70
2019-03-30T12:18:52.468Z,22.05
2019-03-30T12:21:25.448Z,26.57
2019-03-30T12:23:57.620Z,29.87
2019-03-30T12:26:28.713Z,33.88
2019-03-30T12:29:02.136Z,23.60
2019-03-30T12:31:33.404Z,35.75
2019-03-30T12:34:04.446Z,28.92
2019-03-30T12:36:35.477Z,20.80
2019-03-30T12:39:06.521Z,24.12
2019-03-30T12:41:37.598Z,26.05
2019-03-30T12:44:08.292Z,26.07
2019-03-30T12:46:41.583Z,28.63
2019-03-30T12:49:13.783Z,22.98
2019-03-30T12:51:44.596Z,20.77
2019-03-30T12:54:15.532Z,26.30
2019-03-30T12:56:46.584Z,20.52
2019-03-30T12:59:17.416Z,22.73
2019-03-30T13:01:50.793Z,23.40
2019-03-30T13:04:23.779Z,22.60
2019-03-30T13:06:55.670Z,24.87
2019-03-30T13:09:26.272Z,26.62
2019-03-30T13:11:57.820Z,26.68
2019-03-30T13:14:28.560Z,35.98
2019-03-30T13:17:00.291Z,26.60
2019-03-30T13:19:31.853Z,29.45
2019-03-30T13:22:02.453Z,36.40
2019-03-30T13:24:35.579Z,26.93
2019-03-30T13:27:07.232Z,24.35
2019-03-30T13:29:39.193Z,26.30
2019-03-30T13:32:11.916Z,29.80
2019-03-30T13:34:43.950Z,24.90
2019-03-30T13:37:18.744Z,23.38
2019-03-30T13:39:50.739Z,28.47
2019-03-30T13:42:21.455Z,26.90
2019-03-30T13:44:52.087Z,26.23
2019-03-30T13:47:23.946Z,36.30
2019-03-30T13:49:55.502Z,39.33
2019-03-30T13:52:27.049Z,25.48
2019-03-30T13:54:57.482Z,18.80
2019-03-30T13:57:27.988Z,29.75
2019-03-30T14:00:00.389Z,21.75
2019-03-30T14:02:31.623Z,32.15
2019-03-30T14:05:03.206Z,23.92
2019-03-30T14:07:35.481Z,28.95
2019-03-30T14:10:07.184Z,27.62
2019-03-30T14:12:39.062Z,22.82
2019-03-30T14:15:11.190Z,24.02
2019-03-30T14:17:44.101Z,34.00
2019-03-30T14:20:14.834Z,24.47
2019-03-30T14:22:47.120Z,26.60
2019-03-30T14:25:18.450Z,32.67
2019-03-30T14:27:48.881Z,23.77
2019-03-30T14:30:20.639Z,29.48
2019-03-30T14:32:52.640Z,40.30
2019-03-30T14:35:24.137Z,36.42
2019-03-30T14:37:55.080Z,47.17
2019-03-30T14:40:25.510Z,32.48
2019-03-30T14:42:56.761Z,26.90
2019-03-30T14:45:27.693Z,34.60
2019-03-30T14:47:58.835Z,35.00
2019-03-30T14:50:29.258Z,97.42
2019-03-30T14:52:59.790Z,36.10
2019-03-30T14:55:30.746Z,27.87
2019-03-30T14:58:01.458Z,30.95
2019-03-30T15:00:34.243Z,39.10
2019-03-30T15:03:06.922Z,37.10
2019-03-30T15:05:38.467Z,32.38
2019-03-30T15:08:10.928Z,31.15
2019-03-30T15:10:42.744Z,42.93
2019-03-30T15:13:13.738Z,30.50
2019-03-30T15:15:45.485Z,41.73
2019-03-30T15:18:16.961Z,33.75
2019-03-30T15:20:48.065Z,35.28
2019-03-30T15:23:19.025Z,35.88
2019-03-30T15:25:51.089Z,37.25
2019-03-30T15:28:21.511Z,44.60
2019-03-30T15:30:52.244Z,35.23
2019-03-30T15:33:24.803Z,41.00
2019-03-30T15:35:58.838Z,47.73
2019-03-30T15:38:29.355Z,30.30
2019-03-30T15:41:03.055Z,39.50
2019-03-30T15:43:38.427Z,29.85
2019-03-30T15:46:06.377Z,39.58
2019-03-30T15:48:36.630Z,38.05
2019-03-30T15:51:07.946Z,38.40
2019-03-30T15:53:38.670Z,37.53
2019-03-30T15:56:09.233Z,57.17
2019-03-30T15:58:40.652Z,38.70
2019-03-30T16:01:12.284Z,43.68
2019-03-30T16:03:42.721Z,37.20
2019-03-30T16:06:13.351Z,45.28
2019-03-30T16:08:48.697Z,39.92
2019-03-30T16:11:20.042Z,53.35
2019-03-30T16:13:51.592Z,43.83
2019-03-30T16:16:22.179Z,53.30
2019-03-30T16:18:55.309Z,53.42
2019-03-30T16:21:25.736Z,74.70
2019-03-30T16:23:58.619Z,61.28
2019-03-30T16:26:41.816Z,67.92
2019-03-30T16:29:04.892Z,75.17
2019-03-30T16:31:35.322Z,71.55
2019-03-30T16:34:08.208Z,61.50
2019-03-30T16:36:39.046Z,65.12
2019-03-30T16:39:11.378Z,58.63
2019-03-30T16:41:43.578Z,56.83
2019-03-30T16:44:14.303Z,64.15
2019-03-30T16:46:45.669Z,69.60
2019-03-30T16:49:16.905Z,65.10
2019-03-30T16:51:47.219Z,83.85
2019-03-30T16:54:17.777Z,60.70
2019-03-30T16:56:51.874Z,63.52
2019-03-30T16:59:22.193Z,67.00
2019-03-30T17:01:55.164Z,69.53
2019-03-30T17:04:29.405Z,60.67
2019-03-30T17:06:59.502Z,51.85
2019-03-30T17:09:30.096Z,56.25
2019-03-30T17:12:01.989Z,69.05
2019-03-30T17:14:32.313Z,88.70
2019-03-30T17:17:03.455Z,60.43
2019-03-30T17:19:35.474Z,72.65
2019-03-30T17:22:06.693Z,74.85
2019-03-30T17:24:38.418Z,81.95
2019-03-30T17:27:08.739Z,73.67
2019-03-30T17:29:40.125Z,123.80
2019-03-30T17:32:11.632Z,86.17
2019-03-30T17:34:42.372Z,64.00
2019-03-30T17:37:14.644Z,60.92
2019-03-30T17:39:45.171Z,56.45
2019-03-30T17:42:15.998Z,59.13
2019-03-30T17:44:46.635Z,52.80
2019-03-30T17:47:19.925Z,64.90
2019-03-30T17:49:51.126Z,55.95
2019-03-30T17:52:23.442Z,61.85
2019-03-30T17:54:54.171Z,62.95
2019-03-30T17:57:25.725Z,69.12
2019-03-30T17:59:57.379Z,70.03
2019-03-30T18:02:29.532Z,77.22
2019-03-30T18:05:00.581Z,71.47
2019-03-30T18:07:33.348Z,74.72
2019-03-30T18:10:05.021Z,78.72
2019-03-30T18:12:35.343Z,69.95
2019-03-30T18:15:06.377Z,68.20
2019-03-30T18:17:36.691Z,70.62
2019-03-30T18:20:09.378Z,75.45
2019-03-30T18:22:40.728Z,77.45
2019-03-30T18:25:11.048Z,68.52
2019-03-30T18:27:42.602Z,88.87
2019-03-30T18:30:12.929Z,86.00
2019-03-30T18:32:43.861Z,79.15
2019-03-30T18:35:15.255Z,73.90
2019-03-30T18:37:46.847Z,85.65
2019-03-30T18:40:29.165Z,109.87
2019-03-30T18:43:00.088Z,78.47
2019-03-30T18:45:31.850Z,95.42
2019-03-30T18:48:11.193Z,70.90
2019-03-30T18:50:42.129Z,70.85
2019-03-30T18:53:12.653Z,81.55
2019-03-30T18:55:44.034Z,74.22
2019-03-30T18:58:14.741Z,121.77
2019-03-30T19:00:45.979Z,79.53
2019-03-30T19:03:20.063Z,78.92
2019-03-30T19:05:49.697Z,69.57
2019-03-30T19:08:20.427Z,76.17
2019-03-30T19:10:51.574Z,88.17
2019-03-30T19:13:22.615Z,80.03
2019-03-30T19:15:55.505Z,79.07
2019-03-30T19:18:26.228Z,90.67
2019-03-30T19:20:56.455Z,92.17
2019-03-30T19:23:28.920Z,96.15
2019-03-30T19:26:03.547Z,72.30
2019-03-30T19:28:34.992Z,73.78
2019-03-30T19:31:05.731Z,76.82
2019-03-30T19:33:37.181Z,58.40
2019-03-30T19:36:10.060Z,98.92
2019-03-30T19:38:39.564Z,65.05
2019-03-30T19:41:10.292Z,73.85
2019-03-30T19:43:40.924Z,75.67
2019-03-30T19:46:13.115Z,69.92
2019-03-30T19:48:45.565Z,74.58
2019-03-30T19:51:16.502Z,74.65
2019-03-30T19:53:48.461Z,76.37
2019-03-30T19:56:19.095Z,90.50
2019-03-30T19:58:49.722Z,83.95
2019-03-30T20:01:21.181Z,88.33
2019-03-30T20:03:52.072Z,87.35
2019-03-30T20:06:23.972Z,83.85
2019-03-30T20:08:54.805Z,94.20
2019-03-30T20:11:26.357Z,99.10
2019-03-30T20:13:57.017Z,86.67
2019-03-30T20:16:30.565Z,100.85
2019-03-30T20:19:12.039Z,81.05
2019-03-30T20:21:35.158Z,85.85
2019-03-30T20:24:08.062Z,88.70
2019-03-30T20:26:38.885Z,95.85
2019-03-30T20:29:24.399Z,82.02
2019-03-30T20:31:46.482Z,88.60
2019-03-30T20:34:17.028Z,78.43
2019-03-30T20:36:47.605Z,104.12
2019-03-30T20:39:18.911Z,92.97
2019-03-30T20:41:51.429Z,87.30
2019-03-30T20:44:22.981Z,93.70
2019-03-30T20:46:54.632Z,98.87
2019-03-30T20:49:26.390Z,102.30
2019-03-30T20:51:57.032Z,93.45
2019-03-30T20:54:28.548Z,110.30
2019-03-30T20:56:59.735Z,86.87
2019-03-30T20:59:39.952Z,110.70
2019-03-30T21:02:05.075Z,98.67
2019-03-30T21:04:35.555Z,131.10
2019-03-30T21:07:06.095Z,136.18
2019-03-30T21:09:36.958Z,120.95
2019-03-30T21:12:09.224Z,117.15
2019-03-30T21:14:39.963Z,113.12
2019-03-30T21:17:11.200Z,98.25
2019-03-30T21:19:41.938Z,100.53
2019-03-30T21:22:13.489Z,118.60
2019-03-30T21:24:44.889Z,116.15
2019-03-30T21:27:15.771Z,107.03
2019-03-30T21:29:54.586Z,117.10
2019-03-30T21:32:22.257Z,120.55
2019-03-30T21:34:53.100Z,116.35
2019-03-30T21:37:25.242Z,113.00
2019-03-30T21:39:58.009Z,116.73
2019-03-30T21:42:29.878Z,119.45
2019-03-30T21:45:02.368Z,121.75
2019-03-30T21:47:32.741Z,119.02
2019-03-30T21:50:04.699Z,128.75
2019-03-30T21:52:35.054Z,120.35
2019-03-30T21:55:06.733Z,137.05
2019-03-30T21:57:40.645Z,139.20
2019-03-30T22:00:11.824Z,148.13
2019-03-30T22:02:43.840Z,129.65
2019-03-30T22:05:17.276Z,133.93
2019-03-30T22:07:48.789Z,128.80
2019-03-30T22:10:22.084Z,133.07
2019-03-30T22:12:54.957Z,129.38
2019-03-30T22:15:29.193Z,130.07
2019-03-30T22:18:00.011Z,127.87
2019-03-30T22:20:31.974Z,155.57
2019-03-30T22:23:03.767Z,129.10
2019-03-30T22:25:35.281Z,123.85
2019-03-30T22:28:08.664Z,135.45
2019-03-30T22:30:39.311Z,126.78
2019-03-30T22:33:09.899Z,134.30
2019-03-30T22:35:40.572Z,136.12
2019-03-30T22:38:11.304Z,135.18
2019-03-30T22:40:45.515Z,133.93
2019-03-30T22:43:16.421Z,136.68
2019-03-30T22:45:47.185Z,146.70
2019-03-30T22:48:18.635Z,143.52
2019-03-30T22:50:49.447Z,136.40
2019-03-30T22:53:20.515Z,133.43
2019-03-30T22:55:52.111Z,138.25
2019-03-30T22:58:23.721Z,139.82
2019-03-30T23:00:56.293Z,146.98
2019-03-30T23:03:26.926Z,148.25
2019-03-30T23:05:57.650Z,141.18
2019-03-30T23:08:28.971Z,157.60
2019-03-30T23:11:01.575Z,149.42
2019-03-30T23:13:32.718Z,158.35
2019-03-30T23:16:06.929Z,150.40
2019-03-30T23:18:39.335Z,153.25
2019-03-30T23:21:09.831Z,142.25
2019-03-30T23:23:40.460Z,147.25
2019-03-30T23:26:11.090Z,149.05
2019-03-30T23:28:42.025Z,149.23
2019-03-30T23:31:13.576Z,150.82
2019-03-30T23:33:44.210Z,138.95
2019-03-30T23:36:14.845Z,142.10
2019-03-30T23:38:45.674Z,141.12
2019-03-30T23:41:16.504Z,138.90
2019-03-30T23:43:48.150Z,140.12
2019-03-30T23:46:18.898Z,136.18
2019-03-30T23:48:50.099Z,139.95
2019-03-30T23:51:21.594Z,138.95
2019-03-30T23:53:57.032Z,133.60
2019-03-30T23:56:29.176Z,131.85
2019-03-30T23:59:03.000Z,102.67
